Time;durP1;ratioP1;P1;durP2;ratioP2;P2;SDS_P1;SDS_P2;PMS_P1;PMS_P2;Temp;Humidity;BMP_temperature;BMP_pressure;BME280_temperature;BME280_humidity;BME280_pressure;Samples;Min_cycle;Max_cycle;Signal;HPM_P1;HPM_P2
2023/12/24 00:01:02;;;;;;;5.93;3.72;;;;;;;24.63;33.92;99552.75;4987785;28;20514;-46
2023/12/24 00:03:28;;;;;;;5.57;3.53;;;;;;;24.64;33.78;99554.25;4985297;28;20026;-46
2023/12/24 00:05:53;;;;;;;6.03;3.75;;;;;;;24.62;33.91;99554.75;4983228;28;20030;-46
2023/12/24 00:08:18;;;;;;;5.82;3.47;;;;;;;24.62;33.90;99556.75;4987279;28;20062;-46
2023/12/24 00:10:44;;;;;;;6.00;3.70;;;;;;;24.66;33.72;99557.28;4981675;28;20463;-46
2023/12/24 00:13:09;;;;;;;5.85;3.60;;;;;;;24.65;33.93;99555.75;4984759;28;20053;-47
2023/12/24 00:15:34;;;;;;;5.90;3.50;;;;;;;24.64;33.79;99551.50;4984637;28;20034;-47
2023/12/24 00:18:00;;;;;;;6.25;3.78;;;;;;;24.65;33.94;99553.00;4983079;28;20026;-47
2023/12/24 00:20:25;;;;;;;6.20;3.60;;;;;;;24.61;33.88;99546.97;4985355;28;20492;-46
2023/12/24 00:23:07;;;;;;;5.97;3.40;;;;;;;24.62;33.81;99554.00;4986148;28;20026;-46
2023/12/24 00:25:33;;;;;;;5.78;3.45;;;;;;;24.59;33.81;99550.22;4986587;28;20102;-46
2023/12/24 00:27:59;;;;;;;5.40;3.00;;;;;;;24.62;33.84;99556.75;4983583;28;20026;-46
2023/12/24 00:30:26;;;;;;;5.82;3.28;;;;;;;24.62;33.81;99556.75;4983619;28;20037;-46
2023/12/24 00:32:53;;;;;;;5.18;3.00;;;;;;;24.61;33.76;99544.94;4982593;28;20022;-47
2023/12/24 00:35:19;;;;;;;5.07;2.83;;;;;;;24.59;33.77;99543.94;4983533;28;20031;-46
2023/12/24 00:37:44;;;;;;;5.20;2.92;;;;;;;24.59;33.82;99543.94;4990236;28;20029;-47
2023/12/24 00:40:10;;;;;;;4.97;2.80;;;;;;;24.59;33.77;99546.69;4983504;28;20508;-46
2023/12/24 00:42:35;;;;;;;5.07;2.60;;;;;;;24.56;33.78;99537.41;4983068;28;20026;-46
2023/12/24 00:45:00;;;;;;;5.38;2.95;;;;;;;24.58;33.92;99536.94;4987680;28;20026;-46
2023/12/24 00:47:26;;;;;;;4.68;2.50;;;;;;;24.60;33.91;99548.19;4982869;28;20489;-46
2023/12/24 00:49:51;;;;;;;5.00;2.70;;;;;;;24.59;33.85;99543.94;4985152;28;20027;-46
2023/12/24 00:52:16;;;;;;;5.15;2.72;;;;;;;24.60;33.73;99548.97;4985087;28;20053;-46
2023/12/24 00:54:42;;;;;;;5.50;2.95;;;;;;;24.57;33.99;99538.94;4984695;28;20033;-47
2023/12/24 00:57:07;;;;;;;4.70;2.35;;;;;;;24.59;33.77;99541.16;5015873;28;20029;-46
2023/12/24 00:59:32;;;;;;;5.30;2.72;;;;;;;24.63;33.75;99536.94;4982883;28;20101;-47
2023/12/24 01:01:58;;;;;;;4.82;2.50;;;;;;;24.62;33.92;99537.44;4981999;28;20030;-46
2023/12/24 01:04:23;;;;;;;4.90;2.70;;;;;;;24.61;33.67;99546.97;4984171;28;20021;-47
2023/12/24 01:06:48;;;;;;;4.60;2.30;;;;;;;24.60;33.68;99543.44;4985293;28;20042;-46
2023/12/24 01:09:14;;;;;;;4.78;2.42;;;;;;;24.60;33.53;99545.44;4984139;28;20022;-46
2023/12/24 01:11:42;;;;;;;5.25;2.33;;;;;;;24.58;33.82;99539.69;4985419;28;20026;-46
2023/12/24 01:14:08;;;;;;;4.57;2.25;;;;;;;24.58;33.77;99543.19;4983304;28;20038;-46
2023/12/24 01:16:38;;;;;;;4.30;2.00;;;;;;;24.58;33.52;99539.69;4984141;28;20057;-47
2023/12/24 01:19:03;;;;;;;4.38;2.22;;;;;;;24.58;33.68;99536.94;5013239;28;20482;-47
2023/12/24 01:21:28;;;;;;;4.43;2.30;;;;;;;24.55;33.68;99535.16;4986244;28;20022;-46
2023/12/24 01:23:54;;;;;;;4.55;2.40;;;;;;;24.55;33.82;99532.38;4988831;28;20458;-47
2023/12/24 01:26:19;;;;;;;4.28;2.00;;;;;;;24.54;33.69;99539.91;4982637;28;20018;-46
2023/12/24 01:28:44;;;;;;;4.57;2.20;;;;;;;24.54;33.85;99539.16;4980661;28;20033;-47
2023/12/24 01:31:10;;;;;;;4.88;2.40;;;;;;;24.58;33.63;99551.44;4990951;28;20042;-46
2023/12/24 01:33:35;;;;;;;4.28;2.10;;;;;;;24.56;34.03;99542.19;4983244;28;20371;-46
2023/12/24 01:36:00;;;;;;;4.20;1.85;;;;;;;24.55;33.81;99551.72;4983211;28;20030;-46
2023/12/24 01:38:26;;;;;;;4.40;2.13;;;;;;;24.54;33.83;99555.72;4986510;28;20356;-47
2023/12/24 01:40:51;;;;;;;4.40;2.10;;;;;;;24.54;33.71;99555.72;4983187;28;20045;-46
2023/12/24 01:43:17;;;;;;;4.05;1.85;;;;;;;24.55;33.67;99548.94;4980778;28;20025;-46
2023/12/24 01:45:42;;;;;;;4.03;1.90;;;;;;;24.57;33.63;99549.22;4979953;28;20030;-46
2023/12/24 01:48:07;;;;;;;4.55;2.00;;;;;;;24.57;33.61;99551.97;4988875;28;20061;-46
2023/12/24 01:50:33;;;;;;;3.85;2.00;;;;;;;24.59;33.32;99546.69;4983447;28;20023;-47
2023/12/24 01:52:58;;;;;;;3.97;1.98;;;;;;;24.56;33.58;99553.22;4998403;28;20030;-49
2023/12/24 01:55:24;;;;;;;3.78;1.70;;;;;;;24.56;33.63;99542.94;4986336;28;20034;-47
2023/12/24 01:57:49;;;;;;;4.15;1.90;;;;;;;24.56;33.67;99536.66;5016386;28;20508;-46
2023/12/24 02:00:16;;;;;;;4.03;1.80;;;;;;;24.57;33.41;99532.66;4981316;28;20034;-46
2023/12/24 02:02:42;;;;;;;3.58;1.70;;;;;;;24.54;33.50;99523.34;5016239;28;20019;-46
2023/12/24 02:05:07;;;;;;;3.95;1.80;;;;;;;24.55;33.46;99529.63;4981831;28;20049;-47
2023/12/24 02:07:34;;;;;;;3.70;1.70;;;;;;;24.56;33.54;99547.69;5020125;28;20042;-46
2023/12/24 02:10:00;;;;;;;4.22;1.83;;;;;;;24.57;33.52;99557.50;4981102;28;20022;-46
2023/12/24 02:12:25;;;;;;;3.65;1.60;;;;;;;24.56;33.46;99556.75;4980751;28;20516;-48
2023/12/24 02:14:50;;;;;;;4.00;1.80;;;;;;;24.54;33.58;99550.19;4978344;28;20023;-46
2023/12/24 02:17:16;;;;;;;3.60;1.60;;;;;;;24.54;33.49;99545.44;4986047;28;20042;-46
2023/12/24 02:19:41;;;;;;;3.80;1.80;;;;;;;24.51;33.47;99540.91;4981759;28;20031;-48
2023/12/24 02:22:06;;;;;;;3.63;1.60;;;;;;;24.52;33.50;99538.91;4990820;28;20019;-47
2023/12/24 02:24:32;;;;;;;3.90;1.60;;;;;;;24.52;33.41;99555.44;4981532;28;20039;-46
2023/12/24 02:27:19;;;;;;;3.25;1.60;;;;;;;24.50;33.63;99553.19;4983288;28;20018;-48
2023/12/24 02:29:46;;;;;;;3.80;1.52;;;;;;;24.50;33.73;99550.41;4983581;28;20057;-46
2023/12/24 02:32:14;;;;;;;3.22;1.52;;;;;;;24.50;33.53;99553.19;4981464;28;20035;-46
2023/12/24 02:34:40;;;;;;;3.58;1.60;;;;;;;24.53;33.57;99559.72;5009348;28;20030;-46
2023/12/24 02:37:05;;;;;;;3.50;1.50;;;;;;;24.54;33.68;99559.22;4991770;28;20022;-46
2023/12/24 02:39:31;;;;;;;3.60;1.63;;;;;;;24.49;33.52;99553.66;4980315;28;20023;-46
2023/12/24 02:41:56;;;;;;;3.15;1.40;;;;;;;24.48;33.66;99544.63;4985928;28;20030;-46
2023/12/24 02:44:21;;;;;;;3.80;1.60;;;;;;;24.50;33.51;99549.66;4984281;28;20041;-46
2023/12/24 02:46:47;;;;;;;3.20;1.40;;;;;;;24.52;33.52;99542.41;4983277;28;20033;-46
2023/12/24 02:49:14;;;;;;;2.50;1.30;;;;;;;24.52;33.51;99539.66;4980326;28;20033;-46
2023/12/24 02:51:39;;;;;;;3.30;1.40;;;;;;;24.53;33.64;99548.69;4981802;28;20026;-46
2023/12/24 02:54:05;;;;;;;3.30;1.40;;;;;;;24.54;33.65;99561.22;4987287;28;20114;-46
2023/12/24 02:56:36;;;;;;;2.47;1.30;;;;;;;24.56;33.46;99561.50;4979794;28;20033;-46
2023/12/24 02:59:01;;;;;;;3.00;1.40;;;;;;;24.57;33.51;99546.44;4980657;28;20030;-46
2023/12/24 03:01:27;;;;;;;2.53;1.30;;;;;;;24.57;33.48;99532.66;4983331;28;20501;-46
2023/12/24 03:03:52;;;;;;;3.08;1.40;;;;;;;24.59;33.47;99532.91;4982721;28;20032;-46
2023/12/24 03:06:18;;;;;;;3.00;1.50;;;;;;;24.56;33.44;99525.63;4982579;28;20437;-48
2023/12/24 03:08:43;;;;;;;2.65;1.30;;;;;;;24.52;33.41;99523.09;4984402;28;20022;-47
2023/12/24 03:11:08;;;;;;;3.20;1.40;;;;;;;24.50;33.55;99516.56;4979705;28;20034;-46
2023/12/24 03:13:34;;;;;;;3.20;1.50;;;;;;;24.52;33.46;99500.25;4982670;28;20019;-46
2023/12/24 03:15:59;;;;;;;2.67;1.25;;;;;;;24.51;33.38;99493.22;4978679;28;20065;-46
2023/12/24 03:18:24;;;;;;;2.38;1.27;;;;;;;24.49;33.49;99496.47;4982860;28;20026;-47
2023/12/24 03:20:51;;;;;;;3.00;1.38;;;;;;;24.52;33.61;99486.47;4980481;28;20019;-46
2023/12/24 03:23:16;;;;;;;2.58;1.30;;;;;;;24.55;33.64;99493.75;4980141;28;20065;-48
2023/12/24 03:25:42;;;;;;;3.05;1.30;;;;;;;24.51;33.66;99493.22;4982410;28;20026;-46
2023/12/24 03:28:07;;;;;;;2.60;1.20;;;;;;;24.48;33.74;99494.22;4981132;28;20038;-46
2023/12/24 03:30:33;;;;;;;2.80;1.30;;;;;;;24.49;33.62;99492.97;4982976;28;20508;-46
2023/12/24 03:32:58;;;;;;;2.92;1.30;;;;;;;24.48;33.67;99485.94;4983572;28;20032;-48
2023/12/24 03:35:23;;;;;;;2.75;1.20;;;;;;;24.49;33.66;99487.44;4981297;28;20274;-46
2023/12/24 03:37:49;;;;;;;3.35;1.40;;;;;;;24.51;33.73;99490.47;4986388;28;20342;-46
2023/12/24 03:40:14;;;;;;;2.30;1.13;;;;;;;24.55;33.64;99485.47;4981544;28;20030;-46
2023/12/24 03:42:39;;;;;;;2.97;1.27;;;;;;;24.60;33.35;99465.41;4978654;28;20030;-48
2023/12/24 03:45:05;;;;;;;3.28;1.42;;;;;;;24.57;33.51;99472.72;4982961;28;20469;-46
2023/12/24 03:47:31;;;;;;;2.25;1.10;;;;;;;24.57;33.57;99460.91;4984732;28;20022;-47
2023/12/24 03:49:56;;;;;;;2.63;1.20;;;;;;;24.53;33.59;99465.91;4981965;28;20023;-46
2023/12/24 03:52:21;;;;;;;2.65;1.23;;;;;;;24.57;33.58;99469.19;4985450;28;20102;-46
2023/12/24 03:54:47;;;;;;;2.72;1.25;;;;;;;24.53;33.76;99472.19;5009946;28;20018;-46
2023/12/24 03:57:12;;;;;;;2.70;1.20;;;;;;;24.54;33.69;99467.41;4981768;28;20037;-46
2023/12/24 03:59:38;;;;;;;2.85;1.33;;;;;;;24.56;33.58;99470.44;4983375;28;20038;-47
2023/12/24 04:02:03;;;;;;;3.03;1.20;;;;;;;24.55;33.59;99463.41;4984438;28;20544;-46
2023/12/24 04:04:29;;;;;;;2.47;1.20;;;;;;;24.55;33.74;99455.88;4985193;28;20022;-48
2023/12/24 04:06:54;;;;;;;2.50;1.20;;;;;;;24.56;33.58;99462.16;4983300;28;20014;-46
2023/12/24 04:09:21;;;;;;;1.73;1.00;;;;;;;24.55;33.65;99471.69;4979255;28;20026;-47
2023/12/24 04:11:50;;;;;;;3.10;1.30;;;;;;;24.56;33.61;99459.41;5015628;28;20053;-48
2023/12/24 04:14:15;;;;;;;2.53;1.10;;;;;;;24.53;33.88;99461.13;4980150;28;20035;-48
2023/12/24 04:16:41;;;;;;;2.70;1.20;;;;;;;24.50;33.86;99483.44;4987152;28;20021;-47
2023/12/24 04:19:07;;;;;;;2.42;1.10;;;;;;;24.52;33.88;99489.22;5012815;28;20491;-48
2023/12/24 04:21:33;;;;;;;2.47;1.10;;;;;;;24.52;34.01;99489.22;4984290;28;20053;-46
2023/12/24 04:24:01;;;;;;;2.42;1.20;;;;;;;24.54;34.09;99497.78;4986196;28;20040;-47
2023/12/24 04:26:26;;;;;;;2.50;1.13;;;;;;;24.51;34.00;99496.00;4979253;28;20030;-46
2023/12/24 04:28:52;;;;;;;2.58;1.20;;;;;;;24.52;34.10;99494.75;4980627;28;20015;-46
2023/12/24 04:31:17;;;;;;;2.28;1.00;;;;;;;24.49;34.06;99490.22;4981661;28;20038;-46
2023/12/24 04:33:43;;;;;;;2.42;1.20;;;;;;;24.55;34.16;99477.22;4981914;28;20088;-46
2023/12/24 04:36:08;;;;;;;2.00;1.10;;;;;;;24.57;34.07;99486.50;4986288;28;20045;-48
2023/12/24 04:38:33;;;;;;;2.28;1.20;;;;;;;24.58;34.20;99478.97;4987168;28;20076;-46
2023/12/24 04:40:59;;;;;;;2.70;1.20;;;;;;;24.53;34.28;99485.22;4984016;28;20033;-47
2023/12/24 04:43:25;;;;;;;2.75;1.08;;;;;;;24.53;34.32;99482.47;4984602;28;20113;-46
2023/12/24 04:45:50;;;;;;;2.33;1.10;;;;;;;24.52;34.33;99480.94;4986258;28;20466;-46
2023/12/24 04:48:15;;;;;;;3.75;1.40;;;;;;;24.53;34.27;99483.22;4982761;28;20054;-47
2023/12/24 04:50:41;;;;;;;2.60;1.25;;;;;;;24.56;34.59;99473.94;4980427;28;20022;-47
2023/12/24 04:53:06;;;;;;;2.83;1.20;;;;;;;24.54;34.29;99472.94;4983307;28;20085;-46
2023/12/24 04:55:32;;;;;;;3.20;1.10;;;;;;;24.53;34.40;99471.44;4978802;28;20498;-46
2023/12/24 04:57:57;;;;;;;1.63;0.98;;;;;;;24.53;34.47;99463.91;4984726;28;20025;-46
2023/12/24 05:00:22;;;;;;;2.13;0.90;;;;;;;24.53;34.47;99460.38;4985058;28;20076;-46
2023/12/24 05:02:48;;;;;;;2.10;1.00;;;;;;;24.51;34.58;99447.09;4987688;28;20022;-46
2023/12/24 05:05:14;;;;;;;2.40;1.02;;;;;;;24.52;34.48;99426.53;4983451;28;20387;-46
2023/12/24 05:07:40;;;;;;;2.10;1.10;;;;;;;24.50;34.35;99417.97;4983696;28;20052;-46
2023/12/24 05:10:06;;;;;;;2.00;1.05;;;;;;;24.51;34.59;99413.22;4989413;28;20537;-46
2023/12/24 05:12:33;;;;;;;1.95;1.00;;;;;;;24.52;34.59;99403.69;4985009;28;20067;-46
2023/12/24 05:15:00;;;;;;;2.72;0.98;;;;;;;24.49;34.57;99404.69;4982952;28;20021;-47
2023/12/24 05:17:26;;;;;;;2.15;1.08;;;;;;;24.49;34.63;99404.69;4979638;28;20049;-46
2023/12/24 05:19:51;;;;;;;6.18;1.20;;;;;;;24.57;34.38;99394.69;4979930;28;20023;-46
2023/12/24 05:22:16;;;;;;;2.75;1.00;;;;;;;24.57;34.29;99386.41;4987193;28;20052;-46
2023/12/24 05:24:42;;;;;;;6.40;1.02;;;;;;;24.56;34.54;99396.69;4984363;28;20022;-46
2023/12/24 05:27:07;;;;;;;4.90;1.13;;;;;;;24.55;34.46;99392.41;4984611;28;20117;-47
2023/12/24 05:29:32;;;;;;;1.90;1.10;;;;;;;24.57;34.53;99402.97;4983663;28;20077;-46
2023/12/24 05:31:58;;;;;;;4.00;1.20;;;;;;;24.56;34.63;99416.00;4980646;28;20019;-46
2023/12/24 05:34:23;;;;;;;4.65;1.00;;;;;;;24.52;34.69;99411.97;4980433;28;20394;-48
2023/12/24 05:36:49;;;;;;;5.82;1.42;;;;;;;24.64;34.57;99417.03;4978764;28;20027;-45
2023/12/24 05:39:14;;;;;;;2.05;1.02;;;;;;;24.63;34.93;99412.00;4983108;28;20023;-45
2023/12/24 05:41:43;;;;;;;7.30;1.20;;;;;;;24.63;34.89;99395.44;4979004;28;20030;-47
2023/12/24 05:44:08;;;;;;;4.10;1.00;;;;;;;24.62;34.79;99396.69;4983923;28;20054;-47
2023/12/24 05:46:34;;;;;;;2.15;1.00;;;;;;;24.62;34.95;99391.94;4983643;28;20385;-45
2023/12/24 05:49:00;;;;;;;3.85;0.90;;;;;;;24.68;34.93;99400.22;4983451;28;20166;-49
2023/12/24 05:51:25;;;;;;;3.92;1.00;;;;;;;24.69;34.99;99396.22;4979259;28;20483;-43
2023/12/24 05:53:51;;;;;;;2.88;0.90;;;;;;;24.69;35.04;99401.75;4985758;28;20034;-45
2023/12/24 05:56:16;;;;;;;2.10;1.00;;;;;;;24.72;34.90;99400.75;4979605;28;20034;-43
2023/12/24 05:58:41;;;;;;;3.30;1.00;;;;;;;24.71;34.95;99388.19;4980255;28;20589;-48
2023/12/24 06:01:07;;;;;;;3.50;1.10;;;;;;;24.69;34.89;99391.47;4983922;28;20034;-49
2023/12/24 06:03:32;;;;;;;2.88;1.00;;;;;;;24.71;34.78;99408.28;4979827;28;20049;-41
2023/12/24 06:05:57;;;;;;;2.20;0.90;;;;;;;24.71;35.02;99410.28;4982549;28;20390;-45
2023/12/24 06:08:23;;;;;;;2.20;0.88;;;;;;;24.72;34.77;99409.03;4984625;28;20030;-45
2023/12/24 06:10:48;;;;;;;3.00;0.90;;;;;;;24.72;34.86;99398.00;4983235;28;20018;-43
2023/12/24 06:13:14;;;;;;;2.45;1.00;;;;;;;24.66;34.76;99397.97;4980490;28;20482;-47
2023/12/24 06:15:39;;;;;;;3.35;0.90;;;;;;;24.62;34.69;99371.84;4980689;28;20022;-44
2023/12/24 06:18:05;;;;;;;2.72;0.90;;;;;;;24.58;34.56;99374.13;4982884;28;20022;-45
2023/12/24 06:20:32;;;;;;;2.95;0.98;;;;;;;24.61;34.51;99389.66;4985776;28;20150;-43
2023/12/24 06:22:58;;;;;;;2.53;0.82;;;;;;;24.56;34.67;99379.38;4981710;28;20475;-39
2023/12/24 06:25:23;;;;;;;2.80;1.00;;;;;;;24.55;34.67;99369.59;4979521;28;20042;-40
2023/12/24 06:27:48;;;;;;;1.15;0.75;;;;;;;24.56;34.55;99365.59;4980614;28;20479;-41
2023/12/24 06:30:14;;;;;;;2.63;0.90;;;;;;;24.54;34.57;99368.09;4981220;28;20029;-41
2023/12/24 06:32:41;;;;;;;2.47;0.85;;;;;;;24.55;34.42;99364.84;4984217;28;20038;-44
2023/12/24 06:35:07;;;;;;;2.63;0.90;;;;;;;24.53;34.67;99338.97;4979894;28;20105;-47
2023/12/24 06:37:33;;;;;;;1.90;0.85;;;;;;;24.53;34.56;99344.50;4984953;28;20077;-50
2023/12/24 06:39:58;;;;;;;2.40;0.90;;;;;;;24.53;34.49;99333.47;4986966;28;20030;-47
2023/12/24 06:42:23;;;;;;;3.55;0.80;;;;;;;24.55;34.52;99337.25;4979396;28;20097;-48
2023/12/24 06:44:49;;;;;;;1.88;0.90;;;;;;;24.56;34.50;99338.75;4979189;28;20023;-46
2023/12/24 06:47:14;;;;;;;2.28;0.90;;;;;;;24.57;34.51;99331.97;4983389;28;20030;-50
2023/12/24 06:49:43;;;;;;;1.77;0.90;;;;;;;24.56;34.55;99338.00;4978096;28;20378;-46
2023/12/24 06:52:08;;;;;;;1.02;0.70;;;;;;;24.59;34.43;99339.72;4982378;28;20023;-44
2023/12/24 06:54:33;;;;;;;2.17;0.80;;;;;;;24.61;34.51;99348.28;4987433;28;20029;-45
2023/12/24 06:56:59;;;;;;;0.88;0.70;;;;;;;24.65;34.51;99346.03;4985043;28;20019;-45
2023/12/24 06:59:24;;;;;;;2.83;0.98;;;;;;;24.63;34.47;99357.56;4982107;28;20041;-45
2023/12/24 07:01:49;;;;;;;1.98;0.88;;;;;;;24.62;34.50;99355.28;4982040;28;20030;-46
2023/12/24 07:04:15;;;;;;;3.28;0.90;;;;;;;24.67;34.36;99354.56;4979896;28;20029;-45
2023/12/24 07:06:40;;;;;;;3.60;1.08;;;;;;;24.61;34.76;99345.50;4984175;28;20026;-47
2023/12/24 07:09:06;;;;;;;2.22;1.00;;;;;;;24.54;35.34;99355.03;4982491;28;20038;-47
2023/12/24 07:11:31;;;;;;;2.70;1.15;;;;;;;24.46;35.44;99361.53;4979625;28;20383;-50
2023/12/24 07:13:57;;;;;;;2.08;1.02;;;;;;;24.49;35.30;99347.50;4979016;28;20033;-51
2023/12/24 07:16:23;;;;;;;2.30;1.00;;;;;;;24.49;35.11;99366.06;4987492;28;20470;-53
2023/12/24 07:18:48;;;;;;;2.55;1.20;;;;;;;24.48;35.34;99350.75;4986780;28;20591;-50
2023/12/24 07:21:14;;;;;;;2.35;1.00;;;;;;;24.49;35.20;99338.47;4992308;28;20030;-52
2023/12/24 07:23:41;;;;;;;2.28;1.00;;;;;;;24.49;35.34;99332.94;4988926;28;20041;-50
2023/12/24 07:26:07;;;;;;;;;;;;;;;24.53;34.81;99327.94;4989607;28;20385;-47
2023/12/24 07:28:32;;;;;;;1.50;0.90;;;;;;;24.55;35.08;99334.47;4987115;28;19910;-49
2023/12/24 07:30:57;;;;;;;2.50;1.05;;;;;;;24.59;35.00;99328.69;4986552;28;20040;-46
2023/12/24 07:33:23;;;;;;;2.08;0.98;;;;;;;24.58;34.94;99324.44;4986408;28;20103;-47
2023/12/24 07:35:48;;;;;;;2.30;0.80;;;;;;;24.52;35.03;99327.19;4984172;28;20030;-46
2023/12/24 07:38:14;;;;;;;3.00;0.93;;;;;;;24.50;35.00;99326.94;4984254;28;20438;-44
2023/12/24 07:40:40;;;;;;;4.32;1.10;;;;;;;24.64;34.85;99325.19;4986244;28;20022;-47
2023/12/24 07:43:05;;;;;;;10.45;1.30;;;;;;;24.65;35.00;99329.47;4990655;28;20037;-44
2023/12/24 07:45:30;;;;;;;4.32;1.48;;;;;;;24.59;34.74;99331.44;4985379;28;20026;-43
2023/12/24 07:47:56;;;;;;;1.92;0.90;;;;;;;24.60;34.56;99344.00;4990162;28;20095;-42
2023/12/24 07:50:21;;;;;;;2.70;0.90;;;;;;;24.59;34.58;99348.00;4984450;28;20034;-44
2023/12/24 07:52:46;;;;;;;2.53;0.70;;;;;;;24.59;34.75;99334.97;4987836;28;20081;-43
2023/12/24 07:55:12;;;;;;;3.15;0.98;;;;;;;24.55;34.72;99330.97;4985323;28;20040;-45
2023/12/24 07:57:37;;;;;;;2.15;0.85;;;;;;;24.58;34.67;99341.00;4983709;28;20393;-46
2023/12/24 08:00:03;;;;;;;2.72;0.70;;;;;;;24.56;34.60;99329.72;4986761;28;20090;-46
2023/12/24 08:02:29;;;;;;;1.50;0.77;;;;;;;24.55;34.53;99328.22;4981315;28;20027;-42
2023/12/24 08:04:55;;;;;;;1.67;0.80;;;;;;;24.56;34.50;99324.19;4984060;28;20488;-44
2023/12/24 08:07:21;;;;;;;0.95;0.65;;;;;;;24.60;34.58;99305.38;4987181;28;20022;-41
2023/12/24 08:09:46;;;;;;;1.17;0.70;;;;;;;24.57;34.34;99326.47;4988459;28;20583;-42
2023/12/24 08:12:11;;;;;;;3.13;0.80;;;;;;;24.42;33.38;99319.63;4986390;28;20018;-45
2023/12/24 08:14:37;;;;;;;2.55;0.90;;;;;;;24.41;34.00;99309.84;4986508;28;20461;-41
2023/12/24 08:17:02;;;;;;;1.60;0.80;;;;;;;24.47;33.93;99313.38;4985882;28;20022;-46
2023/12/24 08:19:28;;;;;;;2.35;0.80;;;;;;;24.53;34.00;99316.91;4988797;28;20548;-49
2023/12/24 08:21:53;;;;;;;1.58;0.80;;;;;;;24.52;33.73;99318.91;4987202;28;20030;-41
2023/12/24 08:24:18;;;;;;;1.58;0.80;;;;;;;24.55;33.96;99326.19;4983920;28;20019;-45
2023/12/24 08:26:44;;;;;;;1.88;0.80;;;;;;;24.58;33.96;99319.66;4984823;28;20430;-41
2023/12/24 08:29:10;;;;;;;1.80;0.80;;;;;;;24.59;33.98;99328.69;4989296;28;20046;-41
2023/12/24 08:31:35;;;;;;;1.50;0.80;;;;;;;24.62;33.90;99324.94;4985058;28;20076;-43
2023/12/24 08:34:01;;;;;;;1.98;0.90;;;;;;;24.65;33.91;99335.00;4988434;28;20026;-48
2023/12/24 08:36:26;;;;;;;1.70;0.80;;;;;;;24.56;34.55;99340.75;4983638;28;20034;-47
2023/12/24 08:38:51;;;;;;;3.00;0.90;;;;;;;24.56;34.65;99338.00;4987816;28;20613;-48
2023/12/24 08:41:17;;;;;;;5.80;0.98;;;;;;;24.60;34.69;99308.13;4982450;28;20492;-49
2023/12/24 08:43:42;;;;;;;2.65;0.90;;;;;;;24.61;34.62;99315.16;4984377;28;20032;-49
2023/12/24 08:46:08;;;;;;;5.28;1.10;;;;;;;24.58;34.60;99325.19;4982767;28;20027;-49
2023/12/24 08:48:33;;;;;;;3.83;0.88;;;;;;;24.63;34.77;99315.41;4979666;28;20098;-52
2023/12/24 08:51:00;;;;;;;3.03;1.10;;;;;;;24.64;34.87;99323.19;4986844;28;20097;-50
2023/12/24 08:53:26;;;;;;;3.70;1.00;;;;;;;24.64;35.14;99322.44;4986011;28;20030;-50
2023/12/24 08:55:51;;;;;;;2.60;0.88;;;;;;;24.69;34.96;99335.50;4985771;28;20041;-49
2023/12/24 08:58:16;;;;;;;10.23;1.45;;;;;;;24.71;35.37;99339.28;4984608;28;20049;-44
2023/12/24 09:00:42;;;;;;;5.15;0.90;;;;;;;24.72;35.33;99349.06;4982376;28;20031;-48
2023/12/24 09:03:07;;;;;;;5.00;1.70;;;;;;;24.70;35.50;99348.06;4981053;28;20066;-45
2023/12/24 09:05:32;;;;;;;4.55;1.70;;;;;;;24.71;35.57;99357.84;4979018;28;20030;-50
2023/12/24 09:07:58;;;;;;;7.55;2.55;;;;;;;24.69;35.28;99357.59;4984808;28;20026;-51
2023/12/24 09:10:23;;;;;;;11.35;3.50;;;;;;;24.76;35.08;99364.63;4982705;28;20397;-50
2023/12/24 09:12:49;;;;;;;7.25;3.40;;;;;;;24.76;35.26;99362.63;4982100;28;20036;-50
2023/12/24 09:15:14;;;;;;;9.00;3.70;;;;;;;24.81;35.40;99370.16;4982004;28;20030;-44
2023/12/24 09:17:40;;;;;;;9.57;3.40;;;;;;;24.81;35.29;99381.19;4980706;28;20033;-48
2023/12/24 09:20:07;;;;;;;11.38;4.00;;;;;;;24.83;35.31;99388.97;4989348;28;20038;-48
2023/12/24 09:22:32;;;;;;;11.55;3.85;;;;;;;24.88;35.27;99382.72;4988734;28;20032;-47
2023/12/24 09:24:58;;;;;;;12.35;4.00;;;;;;;24.84;35.25;99380.19;4981317;28;20015;-48
2023/12/24 09:27:23;;;;;;;9.18;3.80;;;;;;;24.74;34.53;99376.16;4983799;28;20026;-48
2023/12/24 09:29:48;;;;;;;8.95;3.72;;;;;;;24.59;34.31;99384.63;4982244;28;20018;-47
2023/12/24 09:32:14;;;;;;;7.43;3.03;;;;;;;24.48;34.36;99381.84;4982313;28;20033;-46
2023/12/24 09:34:39;;;;;;;7.85;2.85;;;;;;;24.39;34.31;99393.84;4980363;28;20367;-43
2023/12/24 09:37:04;;;;;;;5.50;2.67;;;;;;;24.33;34.29;99390.34;4983741;28;20041;-43
2023/12/24 09:39:30;;;;;;;6.07;2.03;;;;;;;24.35;34.17;99395.34;4982482;28;20474;-50
2023/12/24 09:41:55;;;;;;;6.32;2.20;;;;;;;24.35;34.04;99395.34;4984677;28;20047;-45
2023/12/24 09:44:22;;;;;;;6.00;1.80;;;;;;;24.25;33.97;99391.28;5013551;28;20038;-48
2023/12/24 09:46:47;;;;;;;6.53;2.00;;;;;;;24.22;34.01;99379.19;4982316;28;20481;-48
2023/12/24 09:49:13;;;;;;;5.68;1.83;;;;;;;24.19;33.89;99366.41;4984973;28;20046;-47
2023/12/24 09:51:38;;;;;;;4.05;1.40;;;;;;;24.16;33.97;99370.16;4982095;28;20030;-45
2023/12/24 09:54:03;;;;;;;4.05;1.50;;;;;;;24.08;34.17;99369.13;5013457;28;20038;-48
2023/12/24 09:56:29;;;;;;;7.78;1.70;;;;;;;24.14;33.94;99380.19;4977933;28;20031;-51
2023/12/24 09:58:54;;;;;;;4.90;1.85;;;;;;;24.16;34.11;99383.97;4981731;28;20018;-45
2023/12/24 10:01:19;;;;;;;3.45;1.35;;;;;;;24.18;33.85;99386.94;5016640;28;20028;-49
2023/12/24 10:03:45;;;;;;;4.25;1.20;;;;;;;24.28;33.68;99391.06;4982008;28;20031;-45
2023/12/24 10:06:10;;;;;;;5.60;1.38;;;;;;;24.30;33.62;99374.78;4983628;28;20040;-46
2023/12/24 10:08:36;;;;;;;16.10;1.70;;;;;;;24.38;33.68;99364.75;4984512;28;20030;-45
2023/12/24 10:11:25;;;;;;;3.75;1.35;;;;;;;24.35;33.64;99363.00;4980514;28;20030;-45
2023/12/24 10:14:00;;;;;;;4.28;1.70;;;;;;;24.29;33.69;99358.72;4983393;28;20538;-46
2023/12/24 10:16:26;;;;;;;5.43;1.70;;;;;;;24.31;33.65;99350.69;4980866;28;20029;-45
2023/12/24 10:18:52;;;;;;;13.73;8.65;;;;;;;24.30;33.59;99333.41;4981449;28;20022;-46
2023/12/24 10:21:18;;;;;;;39.65;28.13;;;;;;;24.30;33.66;99338.91;4981649;28;20032;-46
2023/12/24 10:23:43;;;;;;;51.13;35.30;;;;;;;24.28;33.80;99330.38;4983911;28;20119;-50
2023/12/24 10:26:11;;;;;;;44.42;32.70;;;;;;;24.35;33.73;99338.19;4987409;28;20030;-48
2023/12/24 10:28:48;;;;;;;;;;;;;;;24.32;33.55;99341.94;4989041;28;20034;-48
2023/12/24 10:31:13;;;;;;;54.85;37.67;;;;;;;24.35;33.78;99335.44;4997879;28;19914;-45
2023/12/24 10:33:39;;;;;;;56.70;39.33;;;;;;;24.39;33.75;99346.94;4996929;28;20029;-48
2023/12/24 10:36:06;;;;;;;61.67;41.53;;;;;;;24.47;33.54;99340.97;4998717;28;20038;-47
2023/12/24 10:38:32;;;;;;;51.75;39.42;;;;;;;24.46;33.63;99339.47;4999737;28;20438;-46
2023/12/24 10:40:57;;;;;;;51.75;39.13;;;;;;;24.45;33.51;99329.66;4997182;28;20051;-46
2023/12/24 10:43:23;;;;;;;42.83;32.13;;;;;;;24.47;33.63;99324.41;4997197;28;20023;-45
2023/12/24 10:45:49;;;;;;;47.65;34.00;;;;;;;24.49;33.48;99333.69;4997215;28;20026;-43
2023/12/24 10:48:15;;;;;;;39.90;30.00;;;;;;;24.51;33.48;99324.94;5004725;28;20022;-45
2023/12/24 10:50:41;;;;;;;38.50;29.83;;;;;;;24.53;33.49;99314.16;5008552;28;20025;-46
2023/12/24 10:53:06;;;;;;;38.22;27.75;;;;;;;24.56;33.38;99305.63;4995723;28;20042;-48
2023/12/24 10:55:33;;;;;;;29.65;21.92;;;;;;;24.54;33.31;99310.13;4991819;28;20363;-46
2023/12/24 10:58:01;;;;;;;27.87;20.57;;;;;;;24.54;33.26;99301.88;4988439;28;20034;-52
2023/12/24 11:00:26;;;;;;;22.23;17.15;;;;;;;24.56;33.14;99302.13;4991815;28;20375;-48
2023/12/24 11:02:52;;;;;;;24.08;18.13;;;;;;;24.66;33.34;99306.91;4639224;28;10000287;-47
2023/12/24 11:05:43;;;;;;;24.70;19.48;;;;;;;24.75;33.26;99310.69;4641220;28;10000212;-49
2023/12/24 11:08:23;;;;;;;23.98;18.38;;;;;;;24.82;33.21;99299.88;4984748;28;20817;-44
2023/12/24 11:10:58;;;;;;;26.50;17.75;;;;;;;24.90;33.19;99289.84;4992319;28;20037;-45
2023/12/24 11:13:32;;;;;;;24.90;16.88;;;;;;;24.93;33.43;99293.63;4996353;28;20080;-45
2023/12/24 11:16:02;;;;;;;24.85;17.77;;;;;;;24.93;33.57;99291.63;4987907;28;20414;-45
2023/12/24 11:18:47;;;;;;;24.90;17.80;;;;;;;24.96;33.52;99285.13;4993120;28;20710;-48
2023/12/24 11:21:16;;;;;;;26.35;19.42;;;;;;;24.96;33.79;99287.88;4990033;28;20038;-43
2023/12/24 11:23:42;;;;;;;25.10;19.85;;;;;;;24.96;33.68;99296.16;4988644;28;20084;-46
2023/12/24 11:26:32;;;;;;;24.60;20.30;;;;;;;24.99;33.67;99288.88;4988297;28;20459;-44